Time;durP1;ratioP1;P1;durP2;ratioP2;P2;SDS_P1;SDS_P2;PMS_P1;PMS_P2;Temp;Humidity;BMP_temperature;BMP_pressure;BME280_temperature;BME280_humidity;BME280_pressure;Samples;Min_cycle;Max_cycle;Signal;HPM_P1;HPM_P2
2021/11/17 02:27:12;;;;;;;114.95;48.53;;;-4.00;99.90;;;;;;5074806;28;20395;-87
2021/11/17 02:30:02;;;;;;;120.20;48.83;;;-4.00;99.90;;;;;;5073651;28;20026;-87
2021/11/17 02:33:09;;;;;;;124.53;51.15;;;-3.90;99.90;;;;;;5090548;28;20020;-87
2021/11/17 02:35:45;;;;;;;123.72;51.35;;;-3.90;99.90;;;;;;5074027;28;20378;-87
2021/11/17 02:38:17;;;;;;;123.32;52.60;;;-3.90;99.90;;;;;;5073682;28;20069;-87
2021/11/17 02:41:09;;;;;;;123.72;51.67;;;-3.90;99.90;;;;;;5085040;28;20494;-87
2021/11/17 02:44:03;;;;;;;139.43;57.75;;;-3.90;99.90;;;;;;5040227;28;20040;-87
2021/11/17 02:46:41;;;;;;;141.95;58.25;;;-3.90;99.90;;;;;;5074987;28;20038;-87
2021/11/17 02:49:33;;;;;;;142.40;58.95;;;-4.00;99.90;;;;;;5076316;28;20035;-87
2021/11/17 02:52:05;;;;;;;149.57;60.08;;;-4.00;99.90;;;;;;5076687;28;20046;-87
2021/11/17 02:54:58;;;;;;;158.68;63.63;;;-4.00;99.90;;;;;;5094813;28;20099;-87
2021/11/17 02:58:07;;;;;;;157.10;59.78;;;-3.90;99.90;;;;;;5061571;28;20028;-87
2021/11/17 03:00:44;;;;;;;173.95;72.45;;;-3.90;99.90;;;;;;5059960;28;20120;-87
2021/11/17 03:03:16;;;;;;;159.73;67.07;;;-3.90;99.90;;;;;;5074309;28;20032;-87
2021/11/17 03:05:44;;;;;;;164.60;69.50;;;-3.90;99.90;;;;;;5072873;28;20166;-87
2021/11/17 03:08:29;;;;;;;164.48;66.85;;;-4.00;99.90;;;;;;5073348;28;20051;-87
2021/11/17 03:11:17;;;;;;;152.68;65.72;;;-4.00;99.90;;;;;;5073524;28;20056;-87
2021/11/17 03:13:45;;;;;;;152.75;64.85;;;-4.00;99.90;;;;;;5073459;28;20025;-87
2021/11/17 03:16:30;;;;;;;163.65;70.97;;;-4.00;99.90;;;;;;5074463;28;20016;-87
2021/11/17 03:19:04;;;;;;;159.93;69.22;;;-4.00;99.90;;;;;;5073380;28;20028;-87
2021/11/17 03:21:45;;;;;;;162.02;72.03;;;-4.00;99.90;;;;;;5074534;28;20024;-87
2021/11/17 03:24:19;;;;;;;151.52;67.60;;;-4.10;99.90;;;;;;5073113;28;20020;-87
2021/11/17 03:26:57;;;;;;;166.73;75.93;;;-4.10;99.90;;;;;;5083723;28;20497;-87
2021/11/17 03:29:26;;;;;;;172.40;72.75;;;-4.20;99.90;;;;;;5076549;28;20101;-87
2021/11/17 03:31:57;;;;;;;153.13;65.93;;;-4.30;99.90;;;;;;5078205;28;20023;-87
2021/11/17 03:34:44;;;;;;;147.20;65.25;;;-4.30;99.90;;;;;;5089431;28;20029;-90
2021/11/17 03:37:23;;;;;;;136.98;57.83;;;-4.30;99.90;;;;;;5089504;28;20012;-87
2021/11/17 03:40:13;;;;;;;138.48;59.35;;;-4.20;99.90;;;;;;5092960;28;20074;-87
2021/11/17 03:43:12;;;;;;;151.30;65.13;;;-4.20;99.90;;;;;;5093585;28;20024;-87
2021/11/17 03:45:44;;;;;;;140.82;61.65;;;-4.10;99.90;;;;;;5092984;28;20111;-87
2021/11/17 03:48:34;;;;;;;134.57;57.90;;;-4.10;99.90;;;;;;5091631;28;20023;-87
2021/11/17 03:51:28;;;;;;;137.23;58.83;;;-4.10;99.90;;;;;;5093313;28;20459;-89
2021/11/17 03:54:09;;;;;;;133.30;55.67;;;-4.10;99.90;;;;;;5093158;28;20024;-89
2021/11/17 03:56:50;;;;;;;132.95;57.22;;;-4.20;99.90;;;;;;5075958;28;20032;-90
2021/11/17 03:59:27;;;;;;;;;;;-4.20;99.90;;;;;;5093282;28;20119;-89
2021/11/17 04:02:24;;;;;;;157.57;64.85;;;-4.30;99.90;;;;;;5089700;28;20038;-87
2021/11/17 04:04:59;;;;;;;148.93;62.15;;;-4.40;99.90;;;;;;5055675;28;20080;-87
2021/11/17 04:07:34;;;;;;;156.88;61.13;;;-4.50;99.90;;;;;;5056097;28;20021;-87
2021/11/17 04:10:31;;;;;;;158.43;67.82;;;-4.50;99.90;;;;;;5072861;28;20111;-87
2021/11/17 04:13:18;;;;;;;158.40;68.20;;;-4.60;99.90;;;;;;5074240;28;20382;-87
2021/11/17 04:16:03;;;;;;;164.05;66.70;;;-4.60;99.90;;;;;;5076381;28;20031;-87
2021/11/17 04:18:41;;;;;;;149.55;59.92;;;-4.60;99.90;;;;;;5076473;28;20092;-85
2021/11/17 04:21:19;;;;;;;159.32;64.13;;;-4.50;99.90;;;;;;5080421;28;20119;-85
2021/11/17 04:24:00;;;;;;;186.07;74.20;;;-4.40;99.90;;;;;;5079233;28;20403;-86
2021/11/17 04:26:59;;;;;;;161.82;67.45;;;-4.40;99.90;;;;;;5095697;28;20077;-84
2021/11/17 04:29:24;;;;;;;159.48;62.97;;;-4.40;99.90;;;;;;5086276;28;20509;-85
2021/11/17 04:31:50;;;;;;;171.77;73.15;;;-4.40;99.90;;;;;;5097413;28;20024;-85
2021/11/17 04:34:23;;;;;;;167.00;69.70;;;-4.40;99.90;;;;;;5095932;28;20123;-85
2021/11/17 15:01:44;;;;;;;129.82;52.10;;;-1.50;99.90;;;;;;5083807;28;20373;-86
2021/11/17 15:04:11;;;;;;;141.75;59.35;;;-1.60;99.90;;;;;;5050010;28;20063;-86
2021/11/17 15:06:39;;;;;;;76.70;36.38;;;-1.60;99.90;;;;;;5041080;28;20025;-87
2021/11/17 15:09:07;;;;;;;81.05;39.10;;;-1.70;99.90;;;;;;5030042;28;20124;-87
2021/11/17 15:11:55;;;;;;;65.78;31.38;;;-1.60;99.90;;;;;;5030071;28;20137;-86
2021/11/17 15:14:24;;;;;;;73.43;31.38;;;-1.60;99.90;;;;;;5029982;28;20026;-85
2021/11/17 15:16:51;;;;;;;77.40;34.33;;;-1.60;99.90;;;;;;5029861;28;20547;-87
2021/11/17 15:19:17;;;;;;;63.28;29.38;;;-1.60;99.90;;;;;;5030074;28;20116;-88
2021/11/17 15:21:44;;;;;;;53.03;26.50;;;-1.50;99.90;;;;;;5030009;28;20476;-87
2021/11/17 15:24:09;;;;;;;55.10;26.30;;;-1.50;99.90;;;;;;5030016;28;20388;-88
2021/11/17 15:26:49;;;;;;;53.42;26.80;;;-1.50;99.90;;;;;;5029987;28;20025;-88
2021/11/17 15:29:15;;;;;;;57.45;25.00;;;-1.40;99.90;;;;;;5030667;28;20044;-88
2021/11/17 15:31:41;;;;;;;51.35;25.85;;;-1.30;99.90;;;;;;5029870;28;20464;-88
2021/11/17 15:34:07;;;;;;;55.45;26.83;;;-1.20;99.90;;;;;;5029910;28;20033;-90
2021/11/17 15:36:32;;;;;;;56.03;27.02;;;-1.20;99.90;;;;;;5039202;28;20036;-88
2021/11/17 15:38:58;;;;;;;51.55;26.25;;;-1.20;99.90;;;;;;5049613;28;20108;-88
2021/11/17 15:41:26;;;;;;;54.28;26.65;;;-1.10;99.90;;;;;;5049423;28;20568;-89
2021/11/17 15:43:53;;;;;;;56.35;27.42;;;-1.10;99.90;;;;;;5049468;28;20042;-89
2021/11/17 15:46:20;;;;;;;50.70;28.55;;;-1.10;99.90;;;;;;5049401;28;20472;-88
2021/11/17 15:48:46;;;;;;;59.45;27.67;;;-1.00;99.90;;;;;;5049479;28;20449;-88
2021/11/17 15:51:21;;;;;;;54.58;28.70;;;-1.00;99.90;;;;;;5049409;28;20167;-88
2021/11/17 15:53:47;;;;;;;63.53;31.70;;;-1.10;99.90;;;;;;5049435;28;20033;-88
2021/11/17 15:56:14;;;;;;;61.65;30.10;;;-1.00;99.90;;;;;;5049414;28;20021;-88
2021/11/17 15:58:41;;;;;;;61.97;32.30;;;-1.00;99.90;;;;;;5049197;28;20043;-88
2021/11/17 16:01:09;;;;;;;57.88;30.00;;;-1.00;99.90;;;;;;5040894;28;20076;-88
2021/11/17 16:03:35;;;;;;;70.80;34.97;;;-1.00;99.90;;;;;;5029175;28;20468;-87
2021/11/17 16:06:03;;;;;;;63.22;32.63;;;-1.00;99.90;;;;;;5029166;28;20028;-88
2021/11/17 16:08:31;;;;;;;68.25;33.08;;;-1.00;99.90;;;;;;5028855;28;20022;-88
2021/11/17 16:10:56;;;;;;;66.30;34.25;;;-1.10;99.90;;;;;;5027967;28;20033;-88
2021/11/17 16:13:22;;;;;;;63.80;33.08;;;-1.10;99.90;;;;;;5015459;28;20029;-88
2021/11/17 16:15:48;;;;;;;71.95;35.78;;;-1.10;99.90;;;;;;5015896;28;20444;-88
2021/11/17 16:18:14;;;;;;;70.45;34.55;;;-1.00;99.90;;;;;;5015741;28;20384;-88
2021/11/17 16:20:49;;;;;;;67.15;33.90;;;-1.00;99.90;;;;;;5015845;28;20037;-87
2021/11/17 16:25:50;;;;;;;74.75;38.22;;;-1.10;99.90;;;;;;5017075;28;20065;-88
2021/11/17 16:28:23;;;;;;;73.50;38.35;;;-1.10;99.90;;;;;;5015739;28;20048;-88
2021/11/17 16:30:51;;;;;;;77.18;39.63;;;-1.10;99.90;;;;;;5015672;28;20116;-88
2021/11/17 16:33:18;;;;;;;84.70;40.67;;;-1.20;99.90;;;;;;5015506;28;20465;-88
2021/11/17 16:35:45;;;;;;;83.20;40.92;;;-1.10;99.90;;;;;;5015630;28;20034;-88
2021/11/17 16:38:12;;;;;;;81.90;41.63;;;-1.20;99.90;;;;;;5015551;28;20026;-88
2021/11/17 16:40:41;;;;;;;100.10;44.80;;;-1.20;99.90;;;;;;5015283;28;20026;-89
2021/11/17 16:43:08;;;;;;;89.10;44.13;;;-1.20;99.90;;;;;;5015403;28;20029;-88
2021/11/17 16:45:34;;;;;;;83.20;42.28;;;-1.30;99.90;;;;;;5015411;28;20477;-89
2021/11/17 16:48:00;;;;;;;105.60;47.20;;;-1.30;99.90;;;;;;5015447;28;20025;-88
2021/11/17 16:50:27;;;;;;;91.43;44.22;;;-1.20;99.90;;;;;;5015557;28;20030;-88
2021/11/17 16:52:53;;;;;;;80.78;40.70;;;-1.20;99.90;;;;;;5015156;28;20030;-88
2021/11/17 16:55:24;;;;;;;82.13;40.10;;;-1.20;99.90;;;;;;5015193;28;20030;-88
2021/11/17 16:57:51;;;;;;;80.30;41.63;;;-1.20;99.90;;;;;;5015066;28;20057;-87
2021/11/17 17:00:20;;;;;;;83.35;40.35;;;-1.20;99.90;;;;;;5018470;28;20045;-88
2021/11/17 17:02:47;;;;;;;71.28;35.42;;;-1.20;99.90;;;;;;5036009;28;20077;-88
2021/11/17 17:05:13;;;;;;;78.82;38.72;;;-1.20;99.90;;;;;;5034862;28;20076;-88
2021/11/17 17:07:39;;;;;;;66.30;34.70;;;-1.30;99.90;;;;;;5034596;28;20090;-88
2021/11/17 17:10:11;;;;;;;69.30;35.72;;;-1.30;99.90;;;;;;5025130;28;20081;-88
2021/11/17 17:12:37;;;;;;;76.22;36.58;;;-1.30;99.90;;;;;;5014776;28;20026;-87
2021/11/17 17:15:05;;;;;;;84.10;42.28;;;-1.40;99.90;;;;;;5019155;28;20028;-87
2021/11/17 17:17:31;;;;;;;67.45;36.45;;;-1.40;99.90;;;;;;5020220;28;20061;-88
2021/11/17 17:19:58;;;;;;;68.10;34.60;;;-1.40;99.90;;;;;;5014714;28;20033;-88
2021/11/17 17:22:25;;;;;;;72.90;37.40;;;-1.50;99.90;;;;;;5014589;28;20022;-88
2021/11/17 17:24:52;;;;;;;69.25;35.47;;;-1.50;99.90;;;;;;5013790;28;20029;-87
2021/11/17 17:27:18;;;;;;;77.45;40.55;;;-1.60;99.90;;;;;;5014387;28;20048;-86
2021/11/17 17:29:44;;;;;;;89.55;43.97;;;-1.60;99.90;;;;;;5014497;28;20034;-87
2021/11/17 17:32:10;;;;;;;76.00;39.40;;;-1.60;99.90;;;;;;5014248;28;20030;-87
2021/11/17 17:34:36;;;;;;;64.45;34.72;;;-1.60;99.90;;;;;;5015343;28;20026;-87
2021/11/17 17:37:04;;;;;;;65.50;34.35;;;-1.60;99.90;;;;;;5013892;28;20025;-87
2021/11/17 17:39:33;;;;;;;68.65;34.42;;;-1.60;99.90;;;;;;5030523;28;20029;-87
2021/11/17 17:42:04;;;;;;;69.63;33.90;;;-1.70;99.90;;;;;;5030571;28;20468;-87
2021/11/17 17:44:30;;;;;;;60.15;30.55;;;-1.70;99.90;;;;;;5033696;28;20026;-87
2021/11/17 17:46:55;;;;;;;66.25;35.40;;;-1.70;99.90;;;;;;5014090;28;20055;-88
2021/11/17 17:49:21;;;;;;;71.53;38.33;;;-1.70;99.90;;;;;;5024018;28;20021;-88
2021/11/17 17:51:47;;;;;;;78.20;38.17;;;-1.80;99.90;;;;;;5033680;28;20116;-88
2021/11/17 17:54:14;;;;;;;61.63;34.25;;;-1.80;99.90;;;;;;5023011;28;20026;-88
2021/11/17 17:56:39;;;;;;;68.80;34.33;;;-1.80;99.90;;;;;;5030458;28;20026;-87
2021/11/17 17:59:05;;;;;;;70.75;33.65;;;-1.80;99.90;;;;;;5030620;28;20495;-88
2021/11/17 18:01:31;;;;;;;73.03;36.38;;;-1.80;99.90;;;;;;5013653;28;20050;-88
2021/11/17 18:03:56;;;;;;;65.30;34.17;;;-1.80;99.90;;;;;;5013921;28;20026;-88
2021/11/17 18:06:23;;;;;;;63.75;33.38;;;-1.80;99.90;;;;;;5013795;28;20033;-87
2021/11/17 18:08:49;;;;;;;69.88;33.85;;;-1.80;99.90;;;;;;5013819;28;20026;-87
2021/11/17 18:11:20;;;;;;;58.38;30.73;;;-1.80;99.90;;;;;;5013835;28;20038;-87
2021/11/17 18:13:46;;;;;;;57.65;30.70;;;-1.90;99.90;;;;;;5013767;28;20033;-87
2021/11/17 18:16:13;;;;;;;51.35;27.10;;;-1.90;99.90;;;;;;5020040;28;20384;-87
2021/11/17 18:18:40;;;;;;;45.38;25.05;;;-1.80;99.90;;;;;;5033381;28;20025;-88
2021/11/17 18:21:10;;;;;;;54.15;25.67;;;-1.80;99.90;;;;;;5033249;28;20490;-87
2021/11/17 18:23:36;;;;;;;51.00;25.75;;;-1.80;99.90;;;;;;5033295;28;20056;-88
2021/11/17 18:26:06;;;;;;;57.25;27.02;;;-1.80;99.90;;;;;;5033346;28;20361;-88
2021/11/17 18:28:32;;;;;;;49.80;27.27;;;-1.80;99.90;;;;;;5033205;28;20036;-88
2021/11/17 18:30:59;;;;;;;54.50;28.38;;;-1.90;99.90;;;;;;5033157;28;20101;-87
2021/11/17 18:33:26;;;;;;;55.75;27.67;;;-1.90;99.90;;;;;;5032873;28;20045;-87
2021/11/17 18:35:52;;;;;;;45.83;25.15;;;-1.90;99.90;;;;;;5032915;28;20476;-87
2021/11/17 18:38:17;;;;;;;48.88;26.83;;;-2.00;99.90;;;;;;5033004;28;20057;-87
2021/11/17 18:40:46;;;;;;;53.60;26.40;;;-2.00;99.90;;;;;;5024723;28;20030;-87
2021/11/17 18:43:12;;;;;;;68.68;31.25;;;-2.00;99.90;;;;;;5014678;28;20029;-87
2021/11/17 18:45:42;;;;;;;50.97;26.38;;;-2.00;99.90;;;;;;5013137;28;20033;-87
2021/11/17 18:48:09;;;;;;;47.88;26.85;;;-2.10;99.90;;;;;;5013111;28;20472;-87
2021/11/17 18:50:44;;;;;;;56.90;28.40;;;-2.10;99.90;;;;;;5013205;28;20029;-87
2021/11/17 18:53:16;;;;;;;55.13;28.58;;;-2.10;99.90;;;;;;5013167;28;20022;-88
2021/11/17 18:55:42;;;;;;;69.00;31.98;;;-2.10;99.90;;;;;;5016166;28;20063;-87
2021/11/17 18:58:08;;;;;;;79.22;38.95;;;-2.20;99.90;;;;;;5031649;28;20024;-87
2021/11/17 19:00:43;;;;;;;60.85;31.42;;;-2.20;99.90;;;;;;5032353;28;20045;-87
2021/11/17 19:03:09;;;;;;;58.10;29.70;;;-2.20;99.90;;;;;;5032575;28;20057;-88
2021/11/17 19:05:37;;;;;;;55.80;28.45;;;-2.20;99.90;;;;;;5032662;28;20057;-87
2021/11/17 19:08:03;;;;;;;49.00;25.80;;;-2.20;99.90;;;;;;5030909;28;20075;-87
2021/11/17 19:10:51;;;;;;;57.50;28.20;;;-2.30;99.90;;;;;;5018738;28;20029;-87
2021/11/17 19:13:18;;;;;;;54.42;27.95;;;-2.30;99.90;;;;;;5012819;28;20476;-87
2021/11/17 19:15:43;;;;;;;61.63;31.75;;;-2.30;99.90;;;;;;5014072;28;20385;-87
2021/11/17 19:18:09;;;;;;;62.20;31.05;;;-2.30;99.90;;;;;;5012890;28;20075;-87
2021/11/17 19:20:35;;;;;;;63.63;31.98;;;-2.40;99.90;;;;;;5029121;28;20037;-87
2021/11/17 19:23:01;;;;;;;61.78;29.98;;;-2.40;99.90;;;;;;5012839;28;20049;-88
2021/11/17 19:25:26;;;;;;;56.90;29.65;;;-2.40;99.90;;;;;;5012876;28;20022;-88
2021/11/17 19:27:54;;;;;;;57.58;28.85;;;-2.40;99.90;;;;;;5012839;28;20018;-87
2021/11/17 19:30:23;;;;;;;63.22;31.67;;;-2.40;99.90;;;;;;5014039;28;20030;-88
2021/11/17 19:32:49;;;;;;;59.20;31.95;;;-2.50;99.90;;;;;;5013961;28;20056;-88
2021/11/17 19:35:18;;;;;;;62.10;30.35;;;-2.50;99.90;;;;;;5029281;28;20029;-88
2021/11/17 19:37:44;;;;;;;56.95;30.23;;;-2.50;99.90;;;;;;5028192;28;20033;-87
2021/11/17 19:40:11;;;;;;;66.03;29.13;;;-2.50;99.90;;;;;;5020986;28;20084;-87
2021/11/17 19:42:38;;;;;;;61.90;29.83;;;-2.50;99.90;;;;;;5029149;28;20022;-87
2021/11/17 19:45:06;;;;;;;55.92;29.48;;;-2.50;99.90;;;;;;5029024;28;20057;-87
2021/11/17 19:47:32;;;;;;;55.25;27.77;;;-2.50;99.90;;;;;;5031161;28;20515;-88
2021/11/17 19:50:00;;;;;;;56.35;29.50;;;-2.50;99.90;;;;;;5032813;28;20053;-87
2021/11/17 19:52:31;;;;;;;64.80;31.00;;;-2.60;99.90;;;;;;5032742;28;20508;-87
2021/11/17 19:54:57;;;;;;;;;;;-2.60;99.90;;;;;;5033233;28;20076;-87
2021/11/17 19:57:22;;;;;;;65.13;32.20;;;-2.60;99.90;;;;;;5016226;28;19992;-87
2021/11/17 19:59:50;;;;;;;60.47;30.00;;;-2.60;99.90;;;;;;5032330;28;20523;-87
2021/11/17 20:02:17;;;;;;;57.95;28.90;;;-2.70;99.90;;;;;;5032619;28;20064;-87
2021/11/17 20:04:45;;;;;;;56.63;27.02;;;-2.70;99.90;;;;;;5032566;28;20071;-87
2021/11/17 20:07:12;;;;;;;52.45;26.52;;;-2.70;99.90;;;;;;5032303;28;20026;-87
2021/11/17 20:09:38;;;;;;;53.25;27.00;;;-2.70;99.90;;;;;;5032240;28;20045;-87
2021/11/17 20:12:07;;;;;;;53.75;26.80;;;-2.70;99.90;;;;;;5032532;28;20037;-87
2021/11/17 20:14:33;;;;;;;53.90;26.27;;;-2.80;99.90;;;;;;5032180;28;20030;-87
2021/11/17 20:16:59;;;;;;;53.45;26.42;;;-2.80;99.90;;;;;;5016051;28;20030;-87
2021/11/17 20:19:26;;;;;;;55.33;28.02;;;-2.80;99.90;;;;;;5032900;28;20117;-87
2021/11/17 20:21:52;;;;;;;51.67;27.55;;;-2.90;99.90;;;;;;5031152;28;20102;-88
2021/11/17 20:24:20;;;;;;;57.75;27.75;;;-2.90;99.90;;;;;;5015762;28;20021;-88
2021/11/17 20:26:47;;;;;;;61.97;29.55;;;-2.90;99.90;;;;;;5015677;28;20468;-87
2021/11/17 20:29:13;;;;;;;63.47;31.52;;;-3.00;99.90;;;;;;5016194;28;20361;-87
2021/11/17 20:31:40;;;;;;;71.75;32.75;;;-3.00;99.90;;;;;;5015622;28;20388;-88
2021/11/17 20:34:07;;;;;;;75.50;37.33;;;-3.00;99.90;;;;;;5015974;28;20116;-87
2021/11/17 20:36:33;;;;;;;70.78;32.80;;;-3.10;99.90;;;;;;5015599;28;20026;-87
2021/11/17 20:39:00;;;;;;;80.93;35.08;;;-3.00;99.90;;;;;;5030928;28;20503;-88
2021/11/17 20:41:27;;;;;;;73.65;35.03;;;-3.00;99.90;;;;;;5035186;28;20037;-87
2021/11/17 20:43:53;;;;;;;92.38;44.75;;;-3.00;99.90;;;;;;5035321;28;20022;-88
2021/11/17 20:46:19;;;;;;;82.45;36.58;;;-3.00;99.90;;;;;;5035138;28;20116;-88
2021/11/17 20:48:44;;;;;;;95.28;41.60;;;-3.00;99.90;;;;;;5022420;28;20145;-88
2021/11/17 20:51:11;;;;;;;99.95;45.13;;;-3.00;99.90;;;;;;5016539;28;20045;-86
2021/11/17 20:53:39;;;;;;;109.03;47.25;;;-3.00;99.90;;;;;;5023592;28;20025;-86
2021/11/17 20:56:07;;;;;;;98.05;46.72;;;-2.90;99.90;;;;;;5030187;28;20037;-86
2021/11/17 20:58:36;;;;;;;106.03;48.03;;;-2.90;99.90;;;;;;5022401;28;20116;-87
2021/11/17 21:01:04;;;;;;;110.57;51.00;;;-3.00;99.90;;;;;;5033008;28;20037;-86
2021/11/17 21:03:30;;;;;;;104.45;48.30;;;-2.90;99.90;;;;;;5032843;28;20056;-86
2021/11/17 21:05:56;;;;;;;108.72;51.90;;;-2.90;99.90;;;;;;5032888;28;20337;-87
2021/11/17 21:08:22;;;;;;;112.78;53.00;;;-2.90;99.90;;;;;;5032387;28;20032;-87
2021/11/17 21:10:53;;;;;;;125.40;55.35;;;-2.90;99.90;;;;;;5034641;28;20037;-86
2021/11/17 21:13:20;;;;;;;139.55;61.35;;;-2.90;99.90;;;;;;5034534;28;20029;-86
2021/11/17 21:15:47;;;;;;;125.40;57.83;;;-3.00;99.90;;;;;;5032098;28;20124;-87
2021/11/17 21:18:14;;;;;;;124.90;58.40;;;-3.00;99.90;;;;;;5031096;28;20450;-87
2021/11/17 21:20:41;;;;;;;129.10;60.15;;;-3.00;99.90;;;;;;5031110;28;20495;-85
2021/11/17 21:23:18;;;;;;;159.45;67.88;;;-3.00;99.90;;;;;;5015799;28;20468;-86
2021/11/17 21:25:44;;;;;;;190.23;84.97;;;-3.10;99.90;;;;;;5039590;28;20024;-87
2021/11/17 21:28:10;;;;;;;199.10;87.57;;;-3.10;99.90;;;;;;5034200;28;20033;-84
2021/11/17 21:30:37;;;;;;;222.93;97.88;;;-3.20;99.90;;;;;;5034229;28;20021;-87
2021/11/17 21:33:04;;;;;;;230.00;95.88;;;-3.30;99.90;;;;;;5035567;28;20026;-85
2021/11/17 21:35:33;;;;;;;208.82;93.63;;;-3.30;99.90;;;;;;5034151;28;20025;-87
2021/11/17 21:37:59;;;;;;;219.80;93.35;;;-3.30;99.90;;;;;;5034137;28;20032;-85
2021/11/17 21:40:26;;;;;;;200.93;90.82;;;-3.30;99.90;;;;;;5034052;28;20476;-85
2021/11/17 21:42:53;;;;;;;214.13;96.05;;;-3.30;99.90;;;;;;5035176;28;20028;-85
2021/11/17 21:45:26;;;;;;;233.80;103.97;;;-3.30;99.90;;;;;;5032194;28;20117;-85
2021/11/17 21:47:52;;;;;;;276.35;118.85;;;-3.40;99.90;;;;;;5035163;28;20491;-85
2021/11/17 21:50:20;;;;;;;267.15;113.35;;;-3.50;99.90;;;;;;5033914;28;20030;-85
2021/11/17 21:52:46;;;;;;;308.40;133.65;;;-3.60;99.90;;;;;;5032631;28;20060;-88
2021/11/17 21:55:16;;;;;;;424.42;180.52;;;-3.60;99.90;;;;;;5015569;28;20030;-85
2021/11/17 21:57:43;;;;;;;399.33;159.48;;;-3.60;99.90;;;;;;5014332;28;20026;-87
2021/11/17 22:00:12;;;;;;;424.05;167.80;;;-3.60;99.90;;;;;;5013928;28;20054;-85
2021/11/17 22:02:38;;;;;;;454.35;187.02;;;-3.60;99.90;;;;;;5014380;28;20080;-88
2021/11/17 22:05:05;;;;;;;386.02;148.82;;;-3.50;99.90;;;;;;5013821;28;20026;-85
2021/11/17 22:07:31;;;;;;;341.63;133.40;;;-3.50;99.90;;;;;;5015330;28;20022;-85
2021/11/17 22:09:57;;;;;;;327.38;131.85;;;-3.50;99.90;;;;;;5028729;28;20484;-85
2021/11/17 22:12:22;;;;;;;328.38;128.98;;;-3.50;99.90;;;;;;5033381;28;20356;-85
2021/11/17 22:14:49;;;;;;;318.25;122.50;;;-3.40;99.90;;;;;;5033738;28;20040;-85
2021/11/17 22:17:20;;;;;;;307.63;124.28;;;-3.40;99.90;;;;;;5033663;28;20041;-85
2021/11/17 22:19:47;;;;;;;284.77;114.18;;;-3.50;99.90;;;;;;5033489;28;20512;-85
2021/11/17 22:22:14;;;;;;;290.70;123.03;;;-3.50;99.90;;;;;;5033439;28;20087;-85
2021/11/17 22:24:39;;;;;;;244.02;101.95;;;-3.50;99.90;;;;;;5022841;28;20025;-87
2021/11/17 22:27:05;;;;;;;248.38;98.60;;;-3.50;99.90;;;;;;5014648;28;20028;-85
2021/11/17 22:29:31;;;;;;;252.75;107.38;;;-3.50;99.90;;;;;;5014761;28;20022;-85
2021/11/17 22:31:56;;;;;;;235.48;99.60;;;-3.50;99.90;;;;;;5013795;28;20022;-85
2021/11/17 22:34:22;;;;;;;232.43;101.97;;;-3.50;99.90;;;;;;5013505;28;20026;-85
2021/11/17 22:36:48;;;;;;;235.98;101.53;;;-3.50;99.90;;;;;;5014954;28;20473;-85
2021/11/17 22:39:15;;;;;;;243.88;104.00;;;-3.50;99.90;;;;;;5018545;28;20026;-85
2021/11/17 22:41:41;;;;;;;213.80;90.10;;;-3.50;99.90;;;;;;5033120;28;20029;-85
2021/11/17 22:44:07;;;;;;;209.63;93.50;;;-3.60;99.90;;;;;;5033094;28;20112;-85
2021/11/17 22:46:34;;;;;;;204.20;82.63;;;-3.60;99.90;;;;;;5033310;28;20109;-85
2021/11/17 22:48:59;;;;;;;205.48;85.43;;;-3.60;99.90;;;;;;5033005;28;20555;-85
2021/11/17 22:51:26;;;;;;;198.20;83.68;;;-3.60;99.90;;;;;;5033355;28;20064;-85
2021/11/17 22:53:54;;;;;;;215.90;90.05;;;-3.60;99.90;;;;;;5033055;28;20025;-85
2021/11/17 22:56:20;;;;;;;193.88;84.22;;;-3.60;99.90;;;;;;5014114;28;20034;-85
2021/11/17 22:58:46;;;;;;;221.70;92.47;;;-3.60;99.90;;;;;;5013242;28;20113;-85
2021/11/17 23:01:17;;;;;;;204.80;89.13;;;-3.70;99.90;;;;;;5013122;28;20556;-85
2021/11/17 23:03:43;;;;;;;201.70;85.30;;;-3.70;99.90;;;;;;5013212;28;20053;-86
2021/11/17 23:06:09;;;;;;;201.10;85.05;;;-3.80;99.90;;;;;;5013349;28;20056;-86
2021/11/17 23:08:34;;;;;;;194.20;85.05;;;-3.90;99.90;;;;;;5013374;28;20058;-85
2021/11/17 23:11:00;;;;;;;194.73;84.15;;;-4.00;99.90;;;;;;5025929;28;20072;-85
2021/11/17 23:13:27;;;;;;;196.75;81.82;;;-4.00;99.90;;;;;;5032911;28;20075;-85
2021/11/17 23:15:55;;;;;;;189.82;80.03;;;-4.00;99.90;;;;;;5032946;28;20057;-85
2021/11/17 23:18:22;;;;;;;176.13;76.10;;;-4.10;99.90;;;;;;5034093;28;20048;-85
2021/11/17 23:20:50;;;;;;;173.55;74.45;;;-4.00;99.90;;;;;;5032775;28;20468;-85
2021/11/17 23:23:20;;;;;;;160.98;70.25;;;-4.00;99.90;;;;;;5034794;28;20025;-85
2021/11/17 23:25:50;;;;;;;176.38;76.90;;;-4.00;99.90;;;;;;5016866;28;20022;-85
2021/11/17 23:28:19;;;;;;;173.18;76.57;;;-4.10;99.90;;;;;;5017319;28;20034;-85
2021/11/17 23:30:47;;;;;;;185.70;79.20;;;-4.10;99.90;;;;;;5016818;28;20025;-85
2021/11/17 23:33:14;;;;;;;159.98;68.00;;;-4.10;99.90;;;;;;5016735;28;20026;-85
2021/11/17 23:35:42;;;;;;;166.52;72.05;;;-4.10;99.90;;;;;;5016670;28;20066;-85
2021/11/17 23:38:12;;;;;;;184.98;73.30;;;-4.10;99.90;;;;;;5016809;28;20025;-85
2021/11/17 23:40:40;;;;;;;171.43;74.20;;;-4.10;99.90;;;;;;5035078;28;20056;-85
2021/11/17 23:43:06;;;;;;;171.68;73.18;;;-4.10;99.90;;;;;;5036531;28;20037;-84
2021/11/17 23:45:33;;;;;;;157.93;67.13;;;-4.10;99.90;;;;;;5036390;28;20021;-85
2021/11/17 23:48:00;;;;;;;174.57;76.70;;;-4.10;99.90;;;;;;5037420;28;20483;-85
2021/11/17 23:50:29;;;;;;;157.25;69.68;;;-4.20;99.90;;;;;;5036267;28;20483;-85
2021/11/17 23:52:55;;;;;;;174.77;75.95;;;-4.20;99.90;;;;;;5036368;28;20189;-85
2021/11/17 23:55:25;;;;;;;174.25;73.47;;;-4.20;99.90;;;;;;5022624;28;20062;-85
2021/11/17 23:57:51;;;;;;;172.75;70.25;;;-4.20;99.90;;;;;;5016506;28;20037;-85
